Time,TemperatureF,DewpointF,PressureIn,WindDirection,WindDirectionDegrees,WindSpeedMPH,WindSpeedGustMPH,Humidity,HourlyPrecipIn,Conditions,Clouds,dailyrainin,SoftwareType,DateUTC
2013-09-28 00:00:00,57.9,51.4,29.97,N/A,-737280,0.0,-999.0,79,0.00,,,0.00,Wunderground v.1.15,2013-09-28 07:00:00,
2013-09-28 00:05:00,57.5,51.0,29.96,N/A,-737280,0.0,-999.0,79,0.00,,,0.00,Wunderground v.1.15,2013-09-28 07:05:00,
2013-09-28 00:10:00,57.5,51.0,29.96,N/A,-737280,0.0,-999.0,79,0.00,,,0.00,Wunderground v.1.15,2013-09-28 07:10:00,
2013-09-28 00:15:00,57.1,51.0,29.96,N/A,-737280,0.0,-999.0,80,0.00,,,0.00,Wunderground v.1.15,2013-09-28 07:15:00,
2013-09-28 00:20:00,57.1,51.0,29.96,N/A,-737280,0.0,-999.0,80,0.00,,,0.00,Wunderground v.1.15,2013-09-28 07:20:00,
2013-09-28 00:25:00,56.9,50.8,29.96,N/A,-737280,0.0,-999.0,80,0.00,,,0.00,Wunderground v.1.15,2013-09-28 07:25:00,
2013-09-28 00:30:00,56.9,50.8,29.96,N/A,-737280,0.0,-999.0,80,0.00,,,0.00,Wunderground v.1.15,2013-09-28 07:30:00,
2013-09-28 00:35:00,56.9,51.1,29.96,N/A,-737280,0.0,-999.0,81,0.00,,,0.00,Wunderground v.1.15,2013-09-28 07:35:00,
2013-09-28 00:40:00,56.9,51.1,29.96,N/A,-737280,0.0,-999.0,81,0.00,,,0.00,Wunderground v.1.15,2013-09-28 07:40:00,
2013-09-28 00:45:00,56.9,51.5,29.96,N/A,-737280,0.0,-999.0,82,0.00,,,0.00,Wunderground v.1.15,2013-09-28 07:45:00,
2013-09-28 00:50:00,56.9,51.5,29.96,N/A,-737280,0.0,-999.0,82,0.00,,,0.00,Wunderground v.1.15,2013-09-28 07:50:00,
2013-09-28 00:55:00,56.7,51.6,29.96,N/A,-737280,0.0,-999.0,83,0.00,,,0.00,Wunderground v.1.15,2013-09-28 07:55:00,
2013-09-28 01:00:00,56.5,51.4,29.96,WNW,293,0.0,-999.0,83,0.00,,,0.00,Wunderground v.1.15,2013-09-28 08:00:00,
2013-09-28 01:05:00,56.5,51.4,29.96,WNW,293,0.0,-999.0,83,0.00,,,0.00,Wunderground v.1.15,2013-09-28 08:05:00,
2013-09-28 01:10:00,56.5,51.4,29.96,WNW,293,0.0,-999.0,83,0.00,,,0.00,Wunderground v.1.15,2013-09-28 08:10:00,
2013-09-28 01:15:00,56.4,51.3,29.96,N/A,-737280,0.0,-999.0,83,0.00,,,0.00,Wunderground v.1.15,2013-09-28 08:15:00,
2013-09-28 01:20:00,56.4,51.3,29.96,N/A,-737280,0.0,-999.0,83,0.00,,,0.00,Wunderground v.1.15,2013-09-28 08:20:00,
2013-09-28 01:25:00,56.2,51.4,29.96,N/A,-737280,0.0,-999.0,84,0.00,,,0.00,Wunderground v.1.15,2013-09-28 08:25:00,
2013-09-28 01:30:00,56.2,51.4,29.96,N/A,-737280,0.0,-999.0,84,0.00,,,0.00,Wunderground v.1.15,2013-09-28 08:30:00,
2013-09-28 01:35:00,56.0,51.2,29.96,N/A,-737280,0.0,-999.0,84,0.00,,,0.00,Wunderground v.1.15,2013-09-28 08:35:00,
2013-09-28 01:40:00,56.0,51.2,29.96,N/A,-737280,0.0,-999.0,84,0.00,,,0.00,Wunderground v.1.15,2013-09-28 08:40:00,
2013-09-28 01:45:00,55.7,50.9,29.96,WNW,293,0.0,-999.0,84,0.00,,,0.00,Wunderground v.1.15,2013-09-28 08:45:00,
2013-09-28 01:50:00,55.7,50.9,29.96,WNW,293,0.0,-999.0,84,0.00,,,0.00,Wunderground v.1.15,2013-09-28 08:50:00,
2013-09-28 01:55:00,55.6,51.2,29.96,N/A,-737280,0.0,-999.0,85,0.00,,,0.00,Wunderground v.1.15,2013-09-28 08:55:00,
2013-09-28 02:00:00,55.6,51.2,29.96,N/A,-737280,0.0,-999.0,85,0.00,,,0.00,Wunderground v.1.15,2013-09-28 09:00:00,
2013-09-28 02:05:00,55.2,50.4,29.96,N/A,-737280,0.0,-999.0,84,0.00,,,0.00,Wunderground v.1.15,2013-09-28 09:05:00,
2013-09-28 02:10:00,55.2,50.4,29.96,N/A,-737280,0.0,-999.0,84,0.00,,,0.00,Wunderground v.1.15,2013-09-28 09:10:00,
2013-09-28 02:15:00,55.1,50.7,29.96,N/A,-737280,0.0,-999.0,85,0.00,,,0.00,Wunderground v.1.15,2013-09-28 09:15:00,
2013-09-28 02:20:00,55.1,50.7,29.96,N/A,-737280,0.0,-999.0,85,0.00,,,0.00,Wunderground v.1.15,2013-09-28 09:20:00,
2013-09-28 02:25:00,54.7,50.3,29.96,N/A,-737280,0.0,-999.0,85,0.00,,,0.00,Wunderground v.1.15,2013-09-28 09:25:00,
2013-09-28 02:30:00,54.7,50.3,29.96,N/A,-737280,0.0,-999.0,85,0.00,,,0.00,Wunderground v.1.15,2013-09-28 09:30:00,
2013-09-28 02:35:00,54.2,49.8,29.96,N/A,-737280,0.0,-999.0,85,0.00,,,0.00,Wunderground v.1.15,2013-09-28 09:35:00,
2013-09-28 02:40:00,54.2,49.8,29.96,N/A,-737280,0.0,-999.0,85,0.00,,,0.00,Wunderground v.1.15,2013-09-28 09:40:00,
2013-09-28 02:45:00,53.9,49.5,29.96,N/A,-737280,0.0,-999.0,85,0.00,,,0.00,Wunderground v.1.15,2013-09-28 09:45:00,
2013-09-28 02:50:00,53.9,49.5,29.96,N/A,-737280,0.0,-999.0,85,0.00,,,0.00,Wunderground v.1.15,2013-09-28 09:50:00,
2013-09-28 02:55:00,53.7,49.3,29.96,N/A,-737280,0.0,-999.0,85,0.00,,,0.00,Wunderground v.1.15,2013-09-28 09:55:00,
2013-09-28 03:00:00,53.7,49.3,29.96,N/A,-737280,0.0,-999.0,85,0.00,,,0.00,Wunderground v.1.15,2013-09-28 10:00:00,
2013-09-28 03:05:00,53.4,49.0,29.96,N/A,-737280,0.0,-999.0,85,0.00,,,0.00,Wunderground v.1.15,2013-09-28 10:05:00,
2013-09-28 03:10:00,53.4,49.0,29.96,N/A,-737280,0.0,-999.0,85,0.00,,,0.00,Wunderground v.1.15,2013-09-28 10:10:00,
2013-09-28 03:15:00,53.2,48.8,29.96,N/A,-737280,0.0,-999.0,85,0.00,,,0.00,Wunderground v.1.15,2013-09-28 10:15:00,
2013-09-28 03:20:00,53.2,48.8,29.96,N/A,-737280,0.0,-999.0,85,0.00,,,0.00,Wunderground v.1.15,2013-09-28 10:20:00,
2013-09-28 03:25:00,52.7,47.7,29.95,N/A,-737280,0.0,-999.0,83,0.00,,,0.00,Wunderground v.1.15,2013-09-28 10:25:00,
2013-09-28 03:30:00,52.7,47.7,29.95,N/A,-737280,0.0,-999.0,83,0.00,,,0.00,Wunderground v.1.15,2013-09-28 10:30:00,
2013-09-28 03:35:00,52.4,47.7,29.95,N/A,-737280,0.0,-999.0,84,0.00,,,0.00,Wunderground v.1.15,2013-09-28 10:35:00,
2013-09-28 03:40:00,52.4,47.7,29.95,N/A,-737280,0.0,-999.0,84,0.00,,,0.00,Wunderground v.1.15,2013-09-28 10:40:00,
2013-09-28 03:45:00,52.3,47.6,29.95,N/A,-737280,0.0,-999.0,84,0.00,,,0.00,Wunderground v.1.15,2013-09-28 10:45:00,
2013-09-28 03:50:00,52.3,47.6,29.95,N/A,-737280,0.0,-999.0,84,0.00,,,0.00,Wunderground v.1.15,2013-09-28 10:50:00,
2013-09-28 03:55:00,52.1,47.4,29.95,N/A,-737280,0.0,-999.0,84,0.00,,,0.00,Wunderground v.1.15,2013-09-28 10:55:00,
2013-09-28 04:00:00,52.1,47.4,29.95,N/A,-737280,0.0,-999.0,84,0.00,,,0.00,Wunderground v.1.15,2013-09-28 11:00:00,
2013-09-28 04:05:00,51.8,47.1,29.95,N/A,-737280,0.0,-999.0,84,0.00,,,0.00,Wunderground v.1.15,2013-09-28 11:05:00,
2013-09-28 04:10:00,51.8,47.1,29.95,N/A,-737280,0.0,-999.0,84,0.00,,,0.00,Wunderground v.1.15,2013-09-28 11:10:00,
2013-09-28 04:15:00,51.8,47.1,29.96,WNW,293,0.0,-999.0,84,0.00,,,0.00,Wunderground v.1.15,2013-09-28 11:15:00,
2013-09-28 04:20:00,51.8,47.1,29.96,WNW,293,0.0,-999.0,84,0.00,,,0.00,Wunderground v.1.15,2013-09-28 11:20:00,
2013-09-28 04:25:00,51.7,47.0,29.96,N/A,-737280,0.0,-999.0,84,0.00,,,0.00,Wunderground v.1.15,2013-09-28 11:25:00,
2013-09-28 04:30:00,51.7,47.0,29.96,N/A,-737280,0.0,-999.0,84,0.00,,,0.00,Wunderground v.1.15,2013-09-28 11:30:00,
2013-09-28 04:35:00,51.5,46.8,29.97,N/A,-737280,0.0,-999.0,84,0.00,,,0.00,Wunderground v.1.15,2013-09-28 11:35:00,
2013-09-28 04:40:00,51.5,46.8,29.97,N/A,-737280,0.0,-999.0,84,0.00,,,0.00,Wunderground v.1.15,2013-09-28 11:40:00,
2013-09-28 04:45:00,51.5,46.8,29.97,N/A,-737280,0.0,-999.0,84,0.00,,,0.00,Wunderground v.1.15,2013-09-28 11:45:00,
2013-09-28 04:50:00,51.5,46.8,29.97,N/A,-737280,0.0,-999.0,84,0.00,,,0.00,Wunderground v.1.15,2013-09-28 11:50:00,
2013-09-28 04:55:00,51.4,46.7,29.97,N/A,-737280,0.0,-999.0,84,0.00,,,0.00,Wunderground v.1.15,2013-09-28 11:55:00,
2013-09-28 05:00:00,51.4,46.7,29.97,N/A,-737280,0.0,-999.0,84,0.00,,,0.00,Wunderground v.1.15,2013-09-28 12:00:00,
2013-09-28 05:05:00,51.1,46.4,29.97,N/A,-737280,0.0,-999.0,84,0.00,,,0.00,Wunderground v.1.15,2013-09-28 12:05:00,
2013-09-28 05:10:00,51.1,46.4,29.97,N/A,-737280,0.0,-999.0,84,0.00,,,0.00,Wunderground v.1.15,2013-09-28 12:10:00,
2013-09-28 05:15:00,51.0,46.3,29.97,N/A,-737280,0.0,-999.0,84,0.00,,,0.00,Wunderground v.1.15,2013-09-28 12:15:00,
2013-09-28 05:20:00,51.0,46.3,29.97,N/A,-737280,0.0,-999.0,84,0.00,,,0.00,Wunderground v.1.15,2013-09-28 12:20:00,
2013-09-28 05:25:00,51.0,46.6,29.97,N/A,-737280,0.0,-999.0,85,0.00,,,0.00,Wunderground v.1.15,2013-09-28 12:25:00,
2013-09-28 05:30:00,51.0,46.6,29.97,N/A,-737280,0.0,-999.0,85,0.00,,,0.00,Wunderground v.1.15,2013-09-28 12:30:00,
2013-09-28 05:35:00,50.8,46.5,29.97,N/A,-737280,0.0,-999.0,85,0.00,,,0.00,Wunderground v.1.15,2013-09-28 12:35:00,
2013-09-28 05:40:00,50.8,46.5,29.97,N/A,-737280,0.0,-999.0,85,0.00,,,0.00,Wunderground v.1.15,2013-09-28 12:40:00,
2013-09-28 05:45:00,50.8,46.5,29.97,N/A,-737280,0.0,-999.0,85,0.00,,,0.00,Wunderground v.1.15,2013-09-28 12:45:00,
2013-09-28 05:50:00,50.8,46.5,29.97,N/A,-737280,0.0,-999.0,85,0.00,,,0.00,Wunderground v.1.15,2013-09-28 12:50:00,
2013-09-28 05:55:00,50.7,46.4,29.97,N/A,-737280,0.0,-999.0,85,0.00,,,0.00,Wunderground v.1.15,2013-09-28 12:55:00,
2013-09-28 06:00:00,50.7,46.4,29.97,N/A,-737280,0.0,-999.0,85,0.00,,,0.00,Wunderground v.1.15,2013-09-28 13:00:00,
2013-09-28 06:05:00,50.5,46.2,29.98,N/A,-737280,0.0,-999.0,85,0.00,,,0.00,Wunderground v.1.15,2013-09-28 13:05:00,
2013-09-28 06:10:00,50.5,46.2,29.98,N/A,-737280,0.0,-999.0,85,0.00,,,0.00,Wunderground v.1.15,2013-09-28 13:10:00,
2013-09-28 06:15:00,50.5,46.5,29.98,N/A,-737280,0.0,-999.0,86,0.00,,,0.00,Wunderground v.1.15,2013-09-28 13:15:00,
2013-09-28 06:20:00,50.5,46.5,29.98,N/A,-737280,0.0,-999.0,86,0.00,,,0.00,Wunderground v.1.15,2013-09-28 13:20:00,
2013-09-28 06:25:00,50.3,46.3,29.98,N/A,-737280,0.0,-999.0,86,0.00,,,0.00,Wunderground v.1.15,2013-09-28 13:25:00,
2013-09-28 06:30:00,50.3,46.3,29.98,N/A,-737280,0.0,-999.0,86,0.00,,,0.00,Wunderground v.1.15,2013-09-28 13:30:00,
2013-09-28 06:35:00,50.1,46.1,29.98,N/A,-737280,0.0,-999.0,86,0.00,,,0.00,Wunderground v.1.15,2013-09-28 13:35:00,
2013-09-28 06:40:00,50.1,46.1,29.98,N/A,-737280,0.0,-999.0,86,0.00,,,0.00,Wunderground v.1.15,2013-09-28 13:40:00,
2013-09-28 06:45:00,50.0,46.0,29.98,N/A,-737280,0.0,-999.0,86,0.00,,,0.00,Wunderground v.1.15,2013-09-28 13:45:00,
2013-09-28 06:50:00,50.0,46.0,29.98,N/A,-737280,0.0,-999.0,86,0.00,,,0.00,Wunderground v.1.15,2013-09-28 13:50:00,
2013-09-28 06:55:00,50.0,46.9,29.98,N/A,-737280,0.0,-999.0,89,0.00,,,0.00,Wunderground v.1.15,2013-09-28 13:55:00,
2013-09-28 07:00:00,50.0,46.9,29.98,N/A,-737280,0.0,-999.0,89,0.00,,,0.00,Wunderground v.1.15,2013-09-28 14:00:00,
2013-09-28 07:05:00,49.9,45.9,29.98,N/A,-737280,0.0,-999.0,86,0.00,,,0.00,Wunderground v.1.15,2013-09-28 14:05:00,
2013-09-28 07:10:00,49.9,45.9,29.98,N/A,-737280,0.0,-999.0,86,0.00,,,0.00,Wunderground v.1.15,2013-09-28 14:10:00,
2013-09-28 07:15:00,50.4,46.7,29.98,N/A,-737280,0.0,-999.0,87,0.00,,,0.00,Wunderground v.1.15,2013-09-28 14:15:00,
2013-09-28 07:20:00,50.4,46.7,29.98,N/A,-737280,0.0,-999.0,87,0.00,,,0.00,Wunderground v.1.15,2013-09-28 14:20:00,
2013-09-28 07:25:00,51.3,47.3,29.99,N/A,-737280,0.0,-999.0,86,0.00,,,0.00,Wunderground v.1.15,2013-09-28 14:25:00,
2013-09-28 07:30:00,51.3,47.3,29.99,N/A,-737280,0.0,-999.0,86,0.00,,,0.00,Wunderground v.1.15,2013-09-28 14:30:00,
2013-09-28 07:35:00,52.3,48.2,29.99,N/A,-737280,0.0,-999.0,86,0.00,,,0.00,Wunderground v.1.15,2013-09-28 14:35:00,
2013-09-28 07:40:00,52.3,48.2,29.99,N/A,-737280,0.0,-999.0,86,0.00,,,0.00,Wunderground v.1.15,2013-09-28 14:40:00,
2013-09-28 07:45:00,53.6,49.5,29.99,N/A,-737280,0.0,-999.0,86,0.00,,,0.00,Wunderground v.1.15,2013-09-28 14:45:00,
2013-09-28 07:50:00,53.6,49.5,29.99,N/A,-737280,0.0,-999.0,86,0.00,,,0.00,Wunderground v.1.15,2013-09-28 14:50:00,
2013-09-28 07:55:00,55.3,50.5,29.99,N/A,-737280,0.0,-999.0,84,0.00,,,0.00,Wunderground v.1.15,2013-09-28 14:55:00,
2013-09-28 08:00:00,55.3,50.5,29.99,N/A,-737280,0.0,-999.0,84,0.00,,,0.00,Wunderground v.1.15,2013-09-28 15:00:00,
2013-09-28 08:05:00,56.7,50.3,30.00,N/A,-737280,0.0,-999.0,79,0.00,,,0.00,Wunderground v.1.15,2013-09-28 15:05:00,
2013-09-28 08:10:00,56.7,50.3,30.00,N/A,-737280,0.0,-999.0,79,0.00,,,0.00,Wunderground v.1.15,2013-09-28 15:10:00,
2013-09-28 08:15:00,59.6,49.4,30.00,WNW,293,0.0,-999.0,69,0.00,,,0.00,Wunderground v.1.15,2013-09-28 15:15:00,
2013-09-28 08:20:00,59.6,49.4,30.00,WNW,293,0.0,-999.0,69,0.00,,,0.00,Wunderground v.1.15,2013-09-28 15:20:00,
2013-09-28 08:25:00,62.7,47.2,30.00,WNW,293,0.0,-999.0,57,0.00,,,0.00,Wunderground v.1.15,2013-09-28 15:25:00,
2013-09-28 08:30:00,62.7,47.2,30.00,WNW,293,0.0,-999.0,57,0.00,,,0.00,Wunderground v.1.15,2013-09-28 15:30:00,
2013-09-28 08:35:00,65.0,46.9,30.00,WNW,293,0.0,-999.0,52,0.00,,,0.00,Wunderground v.1.15,2013-09-28 15:35:00,
2013-09-28 08:40:00,65.0,46.9,30.00,WNW,293,0.0,-999.0,52,0.00,,,0.00,Wunderground v.1.15,2013-09-28 15:40:00,
2013-09-28 08:45:00,66.9,47.1,30.00,WNW,293,0.0,-999.0,49,0.00,,,0.00,Wunderground v.1.15,2013-09-28 15:45:00,
2013-09-28 08:50:00,66.9,47.1,30.00,WNW,293,0.0,-999.0,49,0.00,,,0.00,Wunderground v.1.15,2013-09-28 15:50:00,
2013-09-28 08:55:00,67.7,47.8,30.00,WNW,293,0.0,-999.0,49,0.00,,,0.00,Wunderground v.1.15,2013-09-28 15:55:00,
2013-09-28 09:00:00,67.7,47.8,30.00,WNW,293,0.0,-999.0,49,0.00,,,0.00,Wunderground v.1.15,2013-09-28 16:00:00,
2013-09-28 09:05:00,68.4,47.9,30.00,WNW,293,0.0,-999.0,48,0.00,,,0.00,Wunderground v.1.15,2013-09-28 16:05:00,
2013-09-28 09:10:00,68.4,47.9,30.00,WNW,293,0.0,-999.0,48,0.00,,,0.00,Wunderground v.1.15,2013-09-28 16:10:00,
2013-09-28 09:15:00,69.5,48.4,30.00,WNW,293,0.0,-999.0,47,0.00,,,0.00,Wunderground v.1.15,2013-09-28 16:15:00,
2013-09-28 09:16:00,69.1,48.0,30.00,WNW,287,0.0,0.0,47,0.00,,,0.00,Wunderground v.1.15,2013-09-28 16:16:00,
2013-09-28 09:20:00,69.6,48.5,30.00,WNW,287,1.0,1.0,47,0.00,,,0.00,Wunderground v.1.15,2013-09-28 16:20:00,
2013-09-28 09:25:00,69.9,48.7,30.00,WNW,287,1.0,1.0,47,0.00,,,0.00,Wunderground v.1.15,2013-09-28 16:25:00,
2013-09-28 09:30:00,70.5,48.7,30.00,WNW,287,0.0,1.0,46,0.00,,,0.00,Wunderground v.1.15,2013-09-28 16:30:00,
2013-09-28 09:35:00,71.4,47.7,30.00,WNW,287,0.0,1.0,43,0.00,,,0.00,Wunderground v.1.15,2013-09-28 16:35:00,
2013-09-28 09:40:00,72.0,47.6,30.00,WNW,293,0.0,-999.0,42,0.00,,,0.00,Wunderground v.1.15,2013-09-28 16:40:00,
2013-09-28 09:45:00,72.5,46.8,30.01,WNW,287,0.0,1.0,40,0.00,,,0.00,Wunderground v.1.15,2013-09-28 16:45:00,
2013-09-28 09:50:00,73.1,47.3,30.00,WNW,287,0.0,0.0,40,0.00,,,0.00,Wunderground v.1.15,2013-09-28 16:50:00,
2013-09-28 09:55:00,73.8,47.3,30.01,WNW,287,0.0,1.0,39,0.00,,,0.00,Wunderground v.1.15,2013-09-28 16:55:00,
2013-09-28 10:00:00,74.7,46.7,30.00,WNW,287,0.0,0.0,37,0.00,,,0.00,Wunderground v.1.15,2013-09-28 17:00:00,
2013-09-28 10:05:00,76.4,46.7,30.00,WNW,293,0.0,-999.0,35,0.00,,,0.00,Wunderground v.1.15,2013-09-28 17:05:00,
2013-09-28 10:10:00,76.4,46.7,30.00,WNW,293,0.0,-999.0,35,0.00,,,0.00,Wunderground v.1.15,2013-09-28 17:10:00,
2013-09-28 10:15:00,77.2,46.7,30.01,WNW,293,0.0,-999.0,34,0.00,,,0.00,Wunderground v.1.15,2013-09-28 17:15:00,
2013-09-28 10:20:00,77.2,46.7,30.01,WNW,293,0.0,-999.0,34,0.00,,,0.00,Wunderground v.1.15,2013-09-28 17:20:00,
2013-09-28 10:25:00,77.7,47.1,30.00,WNW,293,0.0,-999.0,34,0.00,,,0.00,Wunderground v.1.15,2013-09-28 17:25:00,
2013-09-28 10:30:00,77.7,47.1,30.00,WNW,293,0.0,-999.0,34,0.00,,,0.00,Wunderground v.1.15,2013-09-28 17:30:00,
2013-09-28 10:35:00,79.2,46.8,30.00,WNW,293,0.0,-999.0,32,0.00,,,0.00,Wunderground v.1.15,2013-09-28 17:35:00,
2013-09-28 10:40:00,79.2,46.8,30.00,WNW,293,0.0,-999.0,32,0.00,,,0.00,Wunderground v.1.15,2013-09-28 17:40:00,
2013-09-28 10:45:00,80.3,46.9,30.00,WNW,293,0.0,-999.0,31,0.00,,,0.00,Wunderground v.1.15,2013-09-28 17:45:00,
2013-09-28 10:50:00,80.3,46.9,30.00,WNW,293,0.0,-999.0,31,0.00,,,0.00,Wunderground v.1.15,2013-09-28 17:50:00,
2013-09-28 10:55:00,81.2,46.8,30.00,WNW,293,0.0,-999.0,30,0.00,,,0.00,Wunderground v.1.15,2013-09-28 17:55:00,
2013-09-28 11:00:00,81.2,46.8,30.00,WNW,293,0.0,-999.0,30,0.00,,,0.00,Wunderground v.1.15,2013-09-28 18:00:00,
2013-09-28 11:05:00,82.5,44.1,30.00,WNW,293,0.0,-999.0,26,0.00,,,0.00,Wunderground v.1.15,2013-09-28 18:05:00,
2013-09-28 11:10:00,82.5,44.1,30.00,WNW,293,0.0,-999.0,26,0.00,,,0.00,Wunderground v.1.15,2013-09-28 18:10:00,
2013-09-28 11:15:00,83.6,45.1,30.00,WNW,293,0.0,-999.0,26,0.00,,,0.00,Wunderground v.1.15,2013-09-28 18:15:00,
2013-09-28 11:20:00,83.6,45.1,30.00,WNW,287,0.0,3.0,26,0.00,,,0.00,Wunderground v.1.15,2013-09-28 18:20:00,
2013-09-28 11:25:00,83.4,43.9,30.00,WNW,287,1.0,3.0,25,0.00,,,0.00,Wunderground v.1.15,2013-09-28 18:25:00,
2013-09-28 11:30:00,83.5,44.0,30.00,WNW,287,1.0,1.0,25,0.00,,,0.00,Wunderground v.1.15,2013-09-28 18:30:00,
2013-09-28 11:35:00,83.8,42.0,30.00,WNW,287,0.0,3.0,23,0.00,,,0.00,Wunderground v.1.15,2013-09-28 18:35:00,
2013-09-28 11:40:00,83.9,39.8,30.00,WNW,287,1.0,1.0,21,0.00,,,0.00,Wunderground v.1.15,2013-09-28 18:40:00,
2013-09-28 11:45:00,84.1,39.9,30.00,WNW,287,1.0,1.0,21,0.00,,,0.00,Wunderground v.1.15,2013-09-28 18:45:00,
2013-09-28 11:50:00,84.9,41.8,30.00,WNW,287,0.0,0.0,22,0.00,,,0.00,Wunderground v.1.15,2013-09-28 18:50:00,
2013-09-28 11:55:00,85.4,41.0,30.00,WNW,288,0.0,2.0,21,0.00,,,0.00,Wunderground v.1.15,2013-09-28 18:55:00,
2013-09-28 12:00:00,85.4,39.8,29.99,East,86,1.0,1.0,20,0.00,,,0.00,Wunderground v.1.15,2013-09-28 19:00:00,
2013-09-28 12:05:00,85.7,42.5,29.99,NNW,336,1.0,1.0,22,0.00,,,0.00,Wunderground v.1.15,2013-09-28 19:05:00,
2013-09-28 12:10:00,86.2,39.1,29.99,NNW,336,1.0,1.0,19,0.00,,,0.00,Wunderground v.1.15,2013-09-28 19:10:00,
2013-09-28 12:15:00,87.2,39.9,29.99,WNW,293,1.0,-999.0,19,0.00,,,0.00,Wunderground v.1.15,2013-09-28 19:15:00,
2013-09-28 12:20:00,87.2,39.9,29.99,NE,48,1.0,2.0,19,0.00,,,0.00,Wunderground v.1.15,2013-09-28 19:20:00,
2013-09-28 12:25:00,87.5,40.2,29.98,NNE,24,1.0,3.0,19,0.00,,,0.00,Wunderground v.1.15,2013-09-28 19:25:00,
2013-09-28 12:30:00,87.6,38.8,29.98,NNW,336,1.0,1.0,18,0.00,,,0.00,Wunderground v.1.15,2013-09-28 19:30:00,
2013-09-28 12:35:00,88.1,37.8,29.98,ENE,59,1.0,1.0,17,0.00,,,0.00,Wunderground v.1.15,2013-09-28 19:35:00,
2013-09-28 12:40:00,88.3,39.4,29.98,NW,311,1.0,4.0,18,0.00,,,0.00,Wunderground v.1.15,2013-09-28 19:40:00,
2013-09-28 12:45:00,88.3,36.4,29.97,NW,315,2.0,-999.0,16,0.00,,,0.00,Wunderground v.1.15,2013-09-28 19:45:00,
2013-09-28 12:46:00,88.3,38.0,29.97,NW,321,3.0,4.0,17,0.00,,,0.00,Wunderground v.1.15,2013-09-28 19:46:00,
2013-09-28 12:50:00,88.3,36.4,29.97,WNW,287,2.0,2.0,16,0.00,,,0.00,Wunderground v.1.15,2013-09-28 19:50:00,
2013-09-28 12:55:00,88.5,36.6,29.97,SW,217,2.0,6.0,16,0.00,,,0.00,Wunderground v.1.15,2013-09-28 19:55:00,
2013-09-28 13:00:00,87.9,49.7,29.97,SSW,213,3.0,9.0,27,0.00,,,0.00,Wunderground v.1.15,2013-09-28 20:00:00,
2013-09-28 13:05:00,86.0,43.9,29.97,SSW,212,6.0,9.0,23,0.00,,,0.00,Wunderground v.1.15,2013-09-28 20:05:00,
2013-09-28 13:10:00,85.1,44.2,29.97,SSW,207,7.0,7.0,24,0.00,,,0.00,Wunderground v.1.15,2013-09-28 20:10:00,
2013-09-28 13:15:00,84.1,44.5,29.97,SSW,203,7.0,-999.0,25,0.00,,,0.00,Wunderground v.1.15,2013-09-28 20:15:00,
2013-09-28 13:20:00,84.1,45.5,29.97,SW,229,7.0,7.0,26,0.00,,,0.00,Wunderground v.1.15,2013-09-28 20:20:00,
2013-09-28 13:25:00,84.0,44.4,29.97,South,188,7.0,7.0,25,0.00,,,0.00,Wunderground v.1.15,2013-09-28 20:25:00,
2013-09-28 13:30:00,83.9,44.3,29.96,WSW,244,7.0,7.0,25,0.00,,,0.00,Wunderground v.1.15,2013-09-28 20:30:00,
2013-09-28 13:35:00,84.2,42.4,29.96,SSW,199,6.0,7.0,23,0.00,,,0.00,Wunderground v.1.15,2013-09-28 20:35:00,
2013-09-28 13:40:00,84.3,44.6,29.96,WSW,241,6.0,6.0,25,0.00,,,0.00,Wunderground v.1.15,2013-09-28 20:40:00,
2013-09-28 13:45:00,84.7,41.6,29.96,SW,225,7.0,-999.0,22,0.00,,,0.00,Wunderground v.1.15,2013-09-28 20:45:00,
2013-09-28 13:50:00,84.7,41.6,29.96,SW,225,7.0,-999.0,22,0.00,,,0.00,Wunderground v.1.15,2013-09-28 20:50:00,
2013-09-28 13:55:00,84.4,44.7,29.95,SW,225,7.0,-999.0,25,0.00,,,0.00,Wunderground v.1.15,2013-09-28 20:55:00,
2013-09-28 14:00:00,84.4,44.7,29.95,SW,225,7.0,-999.0,25,0.00,,,0.00,Wunderground v.1.15,2013-09-28 21:00:00,
2013-09-28 14:05:00,85.1,44.2,29.95,WSW,248,5.0,-999.0,24,0.00,,,0.00,Wunderground v.1.15,2013-09-28 21:05:00,
2013-09-28 14:10:00,85.1,44.2,29.95,WSW,248,5.0,-999.0,24,0.00,,,0.00,Wunderground v.1.15,2013-09-28 21:10:00,
2013-09-28 14:15:00,85.2,43.2,29.95,WSW,248,6.0,-999.0,23,0.00,,,0.00,Wunderground v.1.15,2013-09-28 21:15:00,
2013-09-28 14:20:00,85.2,43.2,29.95,WSW,248,6.0,-999.0,23,0.00,,,0.00,Wunderground v.1.15,2013-09-28 21:20:00,
2013-09-28 14:25:00,85.4,43.4,29.94,WSW,248,6.0,-999.0,23,0.00,,,0.00,Wunderground v.1.15,2013-09-28 21:25:00,
2013-09-28 14:30:00,85.4,43.4,29.94,WSW,248,6.0,-999.0,23,0.00,,,0.00,Wunderground v.1.15,2013-09-28 21:30:00,
2013-09-28 14:35:00,85.8,42.6,29.94,SW,225,7.0,-999.0,22,0.00,,,0.00,Wunderground v.1.15,2013-09-28 21:35:00,
2013-09-28 14:40:00,85.8,42.6,29.94,SW,225,7.0,-999.0,22,0.00,,,0.00,Wunderground v.1.15,2013-09-28 21:40:00,
2013-09-28 14:45:00,86.0,41.5,29.94,SW,225,6.0,-999.0,21,0.00,,,0.00,Wunderground v.1.15,2013-09-28 21:45:00,
2013-09-28 14:50:00,86.0,41.5,29.94,SW,225,6.0,-999.0,21,0.00,,,0.00,Wunderground v.1.15,2013-09-28 21:50:00,
2013-09-28 14:55:00,86.5,41.9,29.94,WSW,248,6.0,-999.0,21,0.00,,,0.00,Wunderground v.1.15,2013-09-28 21:55:00,
2013-09-28 15:00:00,86.5,41.9,29.94,WSW,248,6.0,-999.0,21,0.00,,,0.00,Wunderground v.1.15,2013-09-28 22:00:00,
2013-09-28 15:05:00,86.3,43.0,29.93,WSW,248,8.0,-999.0,22,0.00,,,0.00,Wunderground v.1.15,2013-09-28 22:05:00,
2013-09-28 15:10:00,86.3,43.0,29.93,WSW,248,8.0,-999.0,22,0.00,,,0.00,Wunderground v.1.15,2013-09-28 22:10:00,
2013-09-28 15:15:00,86.8,44.6,29.93,SW,225,6.0,-999.0,23,0.00,,,0.00,Wunderground v.1.15,2013-09-28 22:15:00,
2013-09-28 15:20:00,86.8,44.6,29.93,SW,225,6.0,-999.0,23,0.00,,,0.00,Wunderground v.1.15,2013-09-28 22:20:00,
2013-09-28 15:25:00,87.7,40.3,29.94,West,270,4.0,-999.0,19,0.00,,,0.00,Wunderground v.1.15,2013-09-28 22:25:00,
2013-09-28 15:30:00,87.7,40.3,29.94,West,270,4.0,-999.0,19,0.00,,,0.00,Wunderground v.1.15,2013-09-28 22:30:00,
2013-09-28 15:35:00,88.1,40.6,29.94,West,270,7.0,-999.0,19,0.00,,,0.00,Wunderground v.1.15,2013-09-28 22:35:00,
2013-09-28 15:40:00,88.1,40.6,29.94,West,270,7.0,-999.0,19,0.00,,,0.00,Wunderground v.1.15,2013-09-28 22:40:00,
2013-09-28 15:45:00,88.1,37.8,29.93,West,270,7.0,-999.0,17,0.00,,,0.00,Wunderground v.1.15,2013-09-28 22:45:00,
2013-09-28 15:50:00,88.1,37.8,29.93,West,270,7.0,-999.0,17,0.00,,,0.00,Wunderground v.1.15,2013-09-28 22:50:00,
2013-09-28 15:55:00,87.9,37.6,29.93,WNW,293,7.0,-999.0,17,0.00,,,0.00,Wunderground v.1.15,2013-09-28 22:55:00,
2013-09-28 16:00:00,87.9,37.6,29.93,WNW,293,7.0,-999.0,17,0.00,,,0.00,Wunderground v.1.15,2013-09-28 23:00:00,
2013-09-28 16:05:00,87.5,37.3,29.93,West,270,6.0,-999.0,17,0.00,,,0.00,Wunderground v.1.15,2013-09-28 23:05:00,
2013-09-28 16:10:00,87.5,37.3,29.93,West,270,6.0,-999.0,17,0.00,,,0.00,Wunderground v.1.15,2013-09-28 23:10:00,
2013-09-28 16:15:00,87.0,39.7,29.93,West,270,8.0,-999.0,19,0.00,,,0.00,Wunderground v.1.15,2013-09-28 23:15:00,
2013-09-28 16:20:00,87.0,39.7,29.93,West,270,8.0,-999.0,19,0.00,,,0.00,Wunderground v.1.15,2013-09-28 23:20:00,
2013-09-28 16:25:00,86.5,40.7,29.93,West,270,7.0,-999.0,20,0.00,,,0.00,Wunderground v.1.15,2013-09-28 23:25:00,
2013-09-28 16:30:00,86.5,40.7,29.93,West,270,7.0,-999.0,20,0.00,,,0.00,Wunderground v.1.15,2013-09-28 23:30:00,
2013-09-28 16:35:00,86.1,42.8,29.93,West,270,7.0,-999.0,22,0.00,,,0.00,Wunderground v.1.15,2013-09-28 23:35:00,
2013-09-28 16:40:00,86.1,42.8,29.93,West,270,7.0,-999.0,22,0.00,,,0.00,Wunderground v.1.15,2013-09-28 23:40:00,
2013-09-28 16:45:00,85.1,43.1,29.93,West,270,8.0,-999.0,23,0.00,,,0.00,Wunderground v.1.15,2013-09-28 23:45:00,
2013-09-28 16:50:00,85.1,43.1,29.93,West,270,8.0,-999.0,23,0.00,,,0.00,Wunderground v.1.15,2013-09-28 23:50:00,
2013-09-28 16:55:00,84.4,46.8,29.93,WNW,293,7.0,-999.0,27,0.00,,,0.00,Wunderground v.1.15,2013-09-28 23:55:00,
2013-09-28 17:00:00,84.4,46.8,29.93,WNW,293,7.0,-999.0,27,0.00,,,0.00,Wunderground v.1.15,2013-09-29 00:00:00,
2013-09-28 17:05:00,83.4,45.9,29.93,WNW,293,7.0,-999.0,27,0.00,,,0.00,Wunderground v.1.15,2013-09-29 00:05:00,
2013-09-28 17:10:00,83.4,45.9,29.93,WNW,293,7.0,-999.0,27,0.00,,,0.00,Wunderground v.1.15,2013-09-29 00:10:00,
2013-09-28 17:15:00,82.8,49.1,29.93,WNW,293,7.0,-999.0,31,0.00,,,0.00,Wunderground v.1.15,2013-09-29 00:15:00,
2013-09-28 17:20:00,82.8,49.1,29.93,WNW,293,7.0,-999.0,31,0.00,,,0.00,Wunderground v.1.15,2013-09-29 00:20:00,
2013-09-28 17:25:00,81.5,49.6,29.93,WNW,293,7.0,-999.0,33,0.00,,,0.00,Wunderground v.1.15,2013-09-29 00:25:00,
2013-09-28 17:30:00,81.5,49.6,29.93,WNW,293,7.0,-999.0,33,0.00,,,0.00,Wunderground v.1.15,2013-09-29 00:30:00,
2013-09-28 17:35:00,80.3,53.1,29.94,WNW,293,6.0,-999.0,39,0.00,,,0.00,Wunderground v.1.15,2013-09-29 00:35:00,
2013-09-28 17:40:00,80.3,53.1,29.94,WNW,293,6.0,-999.0,39,0.00,,,0.00,Wunderground v.1.15,2013-09-29 00:40:00,
2013-09-28 17:45:00,78.7,53.0,29.94,NW,315,6.0,-999.0,41,0.00,,,0.00,Wunderground v.1.15,2013-09-29 00:45:00,
2013-09-28 17:50:00,78.7,53.0,29.94,NW,315,6.0,-999.0,41,0.00,,,0.00,Wunderground v.1.15,2013-09-29 00:50:00,
2013-09-28 17:55:00,77.4,51.2,29.94,WNW,293,5.0,-999.0,40,0.00,,,0.00,Wunderground v.1.15,2013-09-29 00:55:00,
2013-09-28 18:00:00,77.4,51.2,29.94,WNW,293,5.0,-999.0,40,0.00,,,0.00,Wunderground v.1.15,2013-09-29 01:00:00,
2013-09-28 18:05:00,76.7,47.7,29.94,WNW,293,6.0,-999.0,36,0.00,,,0.00,Wunderground v.1.15,2013-09-29 01:05:00,
2013-09-28 18:10:00,76.7,47.7,29.94,WNW,293,6.0,-999.0,36,0.00,,,0.00,Wunderground v.1.15,2013-09-29 01:10:00,
2013-09-28 18:15:00,76.2,45.0,29.94,WNW,293,6.0,-999.0,33,0.00,,,0.00,Wunderground v.1.15,2013-09-29 01:15:00,
2013-09-28 18:20:00,76.2,45.0,29.94,WNW,293,6.0,-999.0,33,0.00,,,0.00,Wunderground v.1.15,2013-09-29 01:20:00,
2013-09-28 18:25:00,75.8,45.4,29.94,WNW,293,5.0,-999.0,34,0.00,,,0.00,Wunderground v.1.15,2013-09-29 01:25:00,
2013-09-28 18:30:00,75.8,45.4,29.94,WNW,293,5.0,-999.0,34,0.00,,,0.00,Wunderground v.1.15,2013-09-29 01:30:00,
2013-09-28 18:35:00,75.1,44.8,29.94,WNW,293,5.0,-999.0,34,0.00,,,0.00,Wunderground v.1.15,2013-09-29 01:35:00,
2013-09-28 18:40:00,75.1,44.8,29.94,WNW,293,5.0,-999.0,34,0.00,,,0.00,Wunderground v.1.15,2013-09-29 01:40:00,
2013-09-28 18:45:00,74.6,43.6,29.95,WNW,293,5.0,-999.0,33,0.00,,,0.00,Wunderground v.1.15,2013-09-29 01:45:00,
2013-09-28 18:50:00,74.6,43.6,29.95,WNW,293,5.0,-999.0,33,0.00,,,0.00,Wunderground v.1.15,2013-09-29 01:50:00,
2013-09-28 18:55:00,74.1,45.4,29.95,WNW,293,3.0,-999.0,36,0.00,,,0.00,Wunderground v.1.15,2013-09-29 01:55:00,
2013-09-28 19:00:00,74.1,45.4,29.95,WNW,293,3.0,-999.0,36,0.00,,,0.00,Wunderground v.1.15,2013-09-29 02:00:00,
2013-09-28 19:05:00,73.5,46.3,29.95,NW,315,3.0,-999.0,38,0.00,,,0.00,Wunderground v.1.15,2013-09-29 02:05:00,
2013-09-28 19:10:00,73.5,46.3,29.95,NW,315,3.0,-999.0,38,0.00,,,0.00,Wunderground v.1.15,2013-09-29 02:10:00,
2013-09-28 19:15:00,73.0,46.6,29.95,WNW,293,2.0,-999.0,39,0.00,,,0.00,Wunderground v.1.15,2013-09-29 02:15:00,
2013-09-28 19:20:00,73.0,46.6,29.95,WNW,293,2.0,-999.0,39,0.00,,,0.00,Wunderground v.1.15,2013-09-29 02:20:00,
2013-09-28 19:25:00,72.3,47.3,29.95,WNW,293,0.0,-999.0,41,0.00,,,0.00,Wunderground v.1.15,2013-09-29 02:25:00,
2013-09-28 19:30:00,72.3,47.3,29.95,WNW,293,0.0,-999.0,41,0.00,,,0.00,Wunderground v.1.15,2013-09-29 02:30:00,
2013-09-28 19:35:00,71.5,47.2,29.96,WNW,293,0.0,-999.0,42,0.00,,,0.00,Wunderground v.1.15,2013-09-29 02:35:00,
2013-09-28 19:40:00,71.5,47.2,29.96,WNW,293,0.0,-999.0,42,0.00,,,0.00,Wunderground v.1.15,2013-09-29 02:40:00,
2013-09-28 19:45:00,70.4,47.4,29.96,WNW,293,0.0,-999.0,44,0.00,,,0.00,Wunderground v.1.15,2013-09-29 02:45:00,
2013-09-28 19:50:00,70.4,47.4,29.96,WNW,293,0.0,-999.0,44,0.00,,,0.00,Wunderground v.1.15,2013-09-29 02:50:00,
2013-09-28 19:55:00,69.1,47.4,29.96,WNW,293,0.0,-999.0,46,0.00,,,0.00,Wunderground v.1.15,2013-09-29 02:55:00,
2013-09-28 20:00:00,69.1,47.4,29.96,WNW,293,0.0,-999.0,46,0.00,,,0.00,Wunderground v.1.15,2013-09-29 03:00:00,
2013-09-28 20:05:00,68.3,47.3,29.97,WNW,293,0.0,-999.0,47,0.00,,,0.00,Wunderground v.1.15,2013-09-29 03:05:00,
2013-09-28 20:10:00,68.3,47.3,29.97,WNW,293,0.0,-999.0,47,0.00,,,0.00,Wunderground v.1.15,2013-09-29 03:10:00,
2013-09-28 20:15:00,67.9,46.3,29.97,WNW,293,0.0,-999.0,46,0.00,,,0.00,Wunderground v.1.15,2013-09-29 03:15:00,
2013-09-28 20:20:00,67.9,46.3,29.97,WNW,293,0.0,-999.0,46,0.00,,,0.00,Wunderground v.1.15,2013-09-29 03:20:00,
2013-09-28 20:25:00,69.0,47.4,29.97,WNW,293,2.0,-999.0,46,0.00,,,0.00,Wunderground v.1.15,2013-09-29 03:25:00,
2013-09-28 20:30:00,69.0,47.4,29.97,WNW,293,2.0,-999.0,46,0.00,,,0.00,Wunderground v.1.15,2013-09-29 03:30:00,
2013-09-28 20:35:00,68.9,47.3,29.98,WNW,293,0.0,-999.0,46,0.00,,,0.00,Wunderground v.1.15,2013-09-29 03:35:00,
2013-09-28 20:40:00,68.9,47.3,29.98,WNW,293,0.0,-999.0,46,0.00,,,0.00,Wunderground v.1.15,2013-09-29 03:40:00,
2013-09-28 20:45:00,68.3,47.8,29.98,N/A,-737280,0.0,-999.0,48,0.00,,,0.00,Wunderground v.1.15,2013-09-29 03:45:00,
2013-09-28 20:50:00,68.3,47.8,29.98,N/A,-737280,0.0,-999.0,48,0.00,,,0.00,Wunderground v.1.15,2013-09-29 03:50:00,
2013-09-28 20:55:00,67.4,47.6,29.99,N/A,-737280,0.0,-999.0,49,0.00,,,0.00,Wunderground v.1.15,2013-09-29 03:55:00,
2013-09-28 21:00:00,67.4,47.6,29.99,N/A,-737280,0.0,-999.0,49,0.00,,,0.00,Wunderground v.1.15,2013-09-29 04:00:00,
2013-09-28 21:05:00,66.5,48.3,29.99,N/A,-737280,0.0,-999.0,52,0.00,,,0.00,Wunderground v.1.15,2013-09-29 04:05:00,
2013-09-28 21:10:00,66.5,48.3,29.99,N/A,-737280,0.0,-999.0,52,0.00,,,0.00,Wunderground v.1.15,2013-09-29 04:10:00,
2013-09-28 21:15:00,65.4,48.8,29.99,N/A,-737280,0.0,-999.0,55,0.00,,,0.00,Wunderground v.1.15,2013-09-29 04:15:00,
2013-09-28 21:20:00,65.4,48.8,29.99,N/A,-737280,0.0,-999.0,55,0.00,,,0.00,Wunderground v.1.15,2013-09-29 04:20:00,
2013-09-28 21:25:00,64.3,49.2,29.99,N/A,-737280,0.0,-999.0,58,0.00,,,0.00,Wunderground v.1.15,2013-09-29 04:25:00,
2013-09-28 21:30:00,64.3,49.2,29.99,N/A,-737280,0.0,-999.0,58,0.00,,,0.00,Wunderground v.1.15,2013-09-29 04:30:00,
2013-09-28 21:35:00,63.5,49.4,30.00,N/A,-737280,0.0,-999.0,60,0.00,,,0.00,Wunderground v.1.15,2013-09-29 04:35:00,
2013-09-28 21:40:00,63.5,49.4,30.00,N/A,-737280,0.0,-999.0,60,0.00,,,0.00,Wunderground v.1.15,2013-09-29 04:40:00,
2013-09-28 21:45:00,63.0,49.3,30.00,WNW,299,0.0,0.0,61,0.00,,,0.00,Wunderground v.1.15,2013-09-29 04:45:00,
2013-09-28 21:50:00,62.7,49.5,30.00,WNW,299,0.0,0.0,62,0.00,,,0.00,Wunderground v.1.15,2013-09-29 04:50:00,
2013-09-28 21:55:00,62.3,49.1,30.00,WNW,299,0.0,0.0,62,0.00,,,0.00,Wunderground v.1.15,2013-09-29 04:55:00,
2013-09-28 22:00:00,62.1,49.4,30.01,WNW,299,0.0,0.0,63,0.00,,,0.00,Wunderground v.1.15,2013-09-29 05:00:00,
2013-09-28 22:05:00,61.9,49.6,30.01,WNW,299,0.0,0.0,64,0.00,,,0.00,Wunderground v.1.15,2013-09-29 05:05:00,
2013-09-28 22:10:00,61.7,49.8,30.01,WNW,299,0.0,0.0,65,0.00,,,0.00,Wunderground v.1.15,2013-09-29 05:10:00,
2013-09-28 22:15:00,61.4,49.5,30.01,N/A,-737280,0.0,-999.0,65,0.00,,,0.00,Wunderground v.1.15,2013-09-29 05:15:00,
2013-09-28 22:16:00,61.5,49.6,30.01,WNW,299,0.0,0.0,65,0.00,,,0.00,Wunderground v.1.15,2013-09-29 05:16:00,
2013-09-28 22:20:00,61.4,49.5,30.01,N/A,-737280,0.0,-999.0,65,0.00,,,0.00,Wunderground v.1.15,2013-09-29 05:20:00,
2013-09-28 22:25:00,61.2,49.7,30.01,WNW,299,0.0,0.0,66,0.00,,,0.00,Wunderground v.1.15,2013-09-29 05:25:00,
2013-09-28 22:30:00,60.9,49.5,30.01,WNW,299,0.0,0.0,66,0.00,,,0.00,Wunderground v.1.15,2013-09-29 05:30:00,
2013-09-28 22:35:00,60.7,50.1,30.01,N/A,-737280,0.0,-999.0,68,0.00,,,0.00,Wunderground v.1.15,2013-09-29 05:35:00,
2013-09-28 22:40:00,60.7,50.1,30.02,WNW,299,0.0,0.0,68,0.00,,,0.00,Wunderground v.1.15,2013-09-29 05:40:00,
2013-09-28 22:45:00,60.5,49.9,30.02,WNW,299,0.0,0.0,68,0.00,,,0.00,Wunderground v.1.15,2013-09-29 05:45:00,
2013-09-28 22:50:00,60.4,49.8,30.02,WNW,299,0.0,0.0,68,0.00,,,0.00,Wunderground v.1.15,2013-09-29 05:50:00,
2013-09-28 22:55:00,60.2,49.6,30.02,WNW,299,0.0,0.0,68,0.00,,,0.00,Wunderground v.1.15,2013-09-29 05:55:00,
2013-09-28 23:00:00,59.9,49.7,30.01,WNW,299,0.0,0.0,69,0.00,,,0.00,Wunderground v.1.15,2013-09-29 06:00:00,
2013-09-28 23:05:00,59.7,49.9,30.02,WNW,299,0.0,0.0,70,0.00,,,0.00,Wunderground v.1.15,2013-09-29 06:05:00,
2013-09-28 23:10:00,59.5,49.3,30.02,WNW,299,0.0,0.0,69,0.00,,,0.00,Wunderground v.1.15,2013-09-29 06:10:00,
2013-09-28 23:15:00,59.1,49.7,30.02,N/A,-737280,0.0,-999.0,71,0.00,,,0.00,Wunderground v.1.15,2013-09-29 06:15:00,
2013-09-28 23:20:00,59.1,49.7,30.02,WNW,299,0.0,0.0,71,0.00,,,0.00,Wunderground v.1.15,2013-09-29 06:20:00,
2013-09-28 23:25:00,58.9,49.5,30.02,WNW,299,0.0,0.0,71,0.00,,,0.00,Wunderground v.1.15,2013-09-29 06:25:00,
2013-09-28 23:30:00,58.7,49.7,30.02,WNW,299,0.0,0.0,72,0.00,,,0.00,Wunderground v.1.15,2013-09-29 06:30:00,
2013-09-28 23:35:00,58.8,50.2,30.02,WNW,299,0.0,0.0,73,0.00,,,0.00,Wunderground v.1.15,2013-09-29 06:35:00,
2013-09-28 23:40:00,59.0,50.4,30.02,WNW,299,0.0,0.0,73,0.00,,,0.00,Wunderground v.1.15,2013-09-29 06:40:00,
2013-09-28 23:45:00,58.6,50.0,30.02,WNW,293,0.0,-999.0,73,0.00,,,0.00,Wunderground v.1.15,2013-09-29 06:45:00,
2013-09-28 23:50:00,58.6,50.0,30.02,WNW,299,0.0,0.0,73,0.00,,,0.00,Wunderground v.1.15,2013-09-29 06:50:00,
2013-09-28 23:55:00,58.3,49.7,30.02,WNW,299,0.0,0.0,73,0.00,,,0.00,Wunderground v.1.15,2013-09-29 06:55:00,